Alma, Illinois
Current Conditions -  °F | °C
As of 9:35 AM on Sunday 23 Nov 2014 (Local Time) from KENL Reporting Station
Light Rain Light Rain  
Wind Chill: 53°   Ceiling: 1800
Heat Index: 53°   Visibility: 10mi
Dew Point: 46°   Wind: 13mph
Humidity: 76%   Direction: 140°SE
Pressure: 29.71"   Gusts: 17mph
Location:  38.72°N, 88.91°W
Report Text: KENL 231535Z AUTO 14011G15KT 10SM -RA BKN018 BKN029 BKN046 12/08 A2971 RMK AO2 T01180077
Loading
Personal Weather Stations






























Interactive Weather Map New forecast layout! Learn more

10-Day Weather Forecast

Advertisements
Track Severe Weather on mobile